createdAt,value
2023-05-01T04:32:41.449Z,6.51
2023-05-01T04:35:08.378Z,6.54
2023-05-01T04:37:34.888Z,6.57
2023-05-01T04:40:01.452Z,6.64
2023-05-01T04:42:31.960Z,6.66
2023-05-01T04:44:58.664Z,6.70
2023-05-01T04:47:25.253Z,6.73
2023-05-01T04:49:51.810Z,6.78
2023-05-01T04:52:18.321Z,6.79
2023-05-01T04:54:44.859Z,6.80
2023-05-01T04:57:11.405Z,6.87
2023-05-01T04:59:37.978Z,6.92
2023-05-01T05:02:04.526Z,6.92
2023-05-01T05:04:31.138Z,6.99
2023-05-01T05:06:57.718Z,7.04
2023-05-01T05:09:24.269Z,7.09
2023-05-01T05:11:50.875Z,7.17
2023-05-01T05:14:17.464Z,7.20
2023-05-01T05:16:44.095Z,7.23
2023-05-01T05:19:10.779Z,7.24
2023-05-01T05:21:37.294Z,7.25
2023-05-01T05:24:05.135Z,7.23
2023-05-01T05:26:31.672Z,7.26
2023-05-01T05:28:58.250Z,7.31
2023-05-01T05:31:24.809Z,7.36
2023-05-01T05:33:51.420Z,7.39
2023-05-01T05:36:18.002Z,7.43
2023-05-01T05:38:44.518Z,7.44
2023-05-01T05:41:11.093Z,7.43
2023-05-01T05:43:37.653Z,7.46
2023-05-01T05:46:04.433Z,7.51
2023-05-01T05:48:31.054Z,7.56
2023-05-01T05:50:57.623Z,7.59
2023-05-01T05:53:25.915Z,7.54
2023-05-01T05:55:52.925Z,7.53
2023-05-01T05:58:19.443Z,7.62
2023-05-01T06:00:49.592Z,7.69
2023-05-01T06:03:16.389Z,7.74
2023-05-01T06:05:46.064Z,7.75
2023-05-01T06:08:12.684Z,7.86
2023-05-01T06:10:39.535Z,7.94
2023-05-01T06:13:13.347Z,7.97
2023-05-01T06:15:41.475Z,8.02
2023-05-01T06:18:08.348Z,8.14
2023-05-01T06:20:34.976Z,8.23
2023-05-01T06:23:01.531Z,8.33
2023-05-01T06:25:28.079Z,8.42
2023-05-01T06:27:54.584Z,8.46
2023-05-01T06:30:21.182Z,8.49
2023-05-01T06:32:47.897Z,8.55
2023-05-01T06:35:14.550Z,8.58
2023-05-01T06:37:41.188Z,8.63
2023-05-01T06:40:08.466Z,8.71
2023-05-01T06:42:35.425Z,8.81
2023-05-01T06:45:01.963Z,8.90
2023-05-01T06:47:28.579Z,8.99
2023-05-01T06:49:55.275Z,9.05
2023-05-01T06:52:22.024Z,9.13
2023-05-01T06:54:48.580Z,9.22
2023-05-01T06:57:15.110Z,9.26
2023-05-01T06:59:41.671Z,9.31
2023-05-01T07:02:08.374Z,9.36
2023-05-01T07:04:34.909Z,9.44
2023-05-01T07:07:01.478Z,9.51
2023-05-01T07:09:28.042Z,9.58
2023-05-01T07:11:54.576Z,9.64
2023-05-01T07:14:21.131Z,9.68
2023-05-01T07:16:47.740Z,9.68
2023-05-01T07:19:14.299Z,9.74
2023-05-01T07:21:42.145Z,9.82
2023-05-01T07:26:59.202Z,9.97
2023-05-01T07:29:25.708Z,10.05
2023-05-01T07:31:52.330Z,10.16
2023-05-01T07:34:18.871Z,10.26
2023-05-01T07:36:45.453Z,10.35
2023-05-01T07:39:12.045Z,10.42
2023-05-01T07:41:38.596Z,10.48
2023-05-01T07:44:05.143Z,10.56
2023-05-01T07:46:31.803Z,10.63
2023-05-01T07:48:58.392Z,10.72
2023-05-01T07:51:24.924Z,10.84
2023-05-01T07:53:51.482Z,10.94
2023-05-01T07:56:18.079Z,11.05
2023-05-01T07:58:44.634Z,11.16
2023-05-01T08:01:11.181Z,11.21
2023-05-01T08:03:37.953Z,11.25
2023-05-01T08:06:05.349Z,11.27
2023-05-01T08:08:31.980Z,11.28
2023-05-01T08:10:58.566Z,11.29
2023-05-01T08:13:25.095Z,11.35
2023-05-01T08:15:51.689Z,11.51
2023-05-01T08:18:18.232Z,11.62
2023-05-01T08:20:44.796Z,11.75
2023-05-01T08:23:11.360Z,11.87
2023-05-01T08:25:37.914Z,12.00
2023-05-01T08:28:04.652Z,12.18
2023-05-01T08:30:31.289Z,12.32
2023-05-01T08:32:57.862Z,12.46
2023-05-01T08:35:24.409Z,12.57
2023-05-01T08:37:50.964Z,12.70
2023-05-01T08:40:17.566Z,12.83
2023-05-01T08:42:44.116Z,12.97
2023-05-01T08:45:10.928Z,13.12
2023-05-01T08:47:37.686Z,13.24
2023-05-01T08:50:04.577Z,13.40
2023-05-01T08:52:31.264Z,13.57
2023-05-01T08:54:57.814Z,13.75
2023-05-01T08:57:24.396Z,13.95
2023-05-01T08:59:50.961Z,14.18
2023-05-01T09:02:17.505Z,14.36
2023-05-01T09:04:44.072Z,14.54
2023-05-01T09:07:10.714Z,14.76
2023-05-01T09:09:37.326Z,14.97
2023-05-01T09:12:16.309Z,15.16
2023-05-01T09:14:42.856Z,15.33
2023-05-01T09:17:09.504Z,15.54
2023-05-01T09:19:36.067Z,15.61
2023-05-01T09:22:02.655Z,15.74
2023-05-01T09:24:29.239Z,15.89
2023-05-01T09:26:55.879Z,15.97
2023-05-01T09:29:41.710Z,15.95
2023-05-01T09:32:14.942Z,15.97
2023-05-01T09:34:41.966Z,15.99
2023-05-01T09:37:08.553Z,16.18
2023-05-01T09:39:35.146Z,16.38
2023-05-01T09:42:01.719Z,16.45
2023-05-01T09:44:28.316Z,16.39
2023-05-01T09:46:54.870Z,16.41
2023-05-01T09:49:31.075Z,16.49
2023-05-01T09:52:11.007Z,16.58
2023-05-01T09:54:37.551Z,16.55
2023-05-01T09:57:04.203Z,16.49
2023-05-01T09:59:30.776Z,16.54
2023-05-01T10:01:57.392Z,16.63
2023-05-01T10:04:33.926Z,16.78
2023-05-01T10:07:10.933Z,16.84
2023-05-01T10:09:37.504Z,16.82
2023-05-01T10:12:04.223Z,16.79
2023-05-01T10:14:30.788Z,17.02
2023-05-01T10:16:57.378Z,17.19
2023-05-01T10:19:23.949Z,17.33
2023-05-01T10:21:50.511Z,17.48
2023-05-01T10:24:17.407Z,17.49
2023-05-01T10:26:44.113Z,17.61
2023-05-01T10:29:10.783Z,17.72
2023-05-01T10:31:38.695Z,17.93
2023-05-01T10:34:05.991Z,18.01
2023-05-01T10:36:36.614Z,18.12
2023-05-01T10:39:03.401Z,18.32
2023-05-01T10:41:57.895Z,18.28
2023-05-01T10:44:25.481Z,18.20
2023-05-01T10:46:52.249Z,18.08
2023-05-01T10:49:18.960Z,18.06
2023-05-01T10:51:58.063Z,18.00
2023-05-01T10:54:31.397Z,18.09
2023-05-01T10:57:01.672Z,18.17
2023-05-01T11:00:00.577Z,18.29
2023-05-01T11:02:27.080Z,18.39
2023-05-01T11:04:53.951Z,18.46
2023-05-01T11:07:21.798Z,18.53
2023-05-01T11:09:52.279Z,18.72
2023-05-01T11:12:46.571Z,18.88
2023-05-01T11:15:25.080Z,18.99
2023-05-01T11:17:51.687Z,18.99
2023-05-01T11:20:27.020Z,19.04
2023-05-01T11:22:54.626Z,19.09
2023-05-01T11:25:27.976Z,19.22
2023-05-01T11:27:55.820Z,19.11
2023-05-01T11:30:22.648Z,19.01
2023-05-01T11:32:49.982Z,19.04
2023-05-01T11:35:20.045Z,19.31
2023-05-01T11:37:47.038Z,19.52
2023-05-01T11:40:26.257Z,19.59
2023-05-01T11:43:01.180Z,19.90
2023-05-01T11:45:27.862Z,20.15
2023-05-01T11:47:54.536Z,20.30
2023-05-01T11:50:21.208Z,20.39
2023-05-01T11:52:51.047Z,20.51
2023-05-01T11:55:17.589Z,20.43
2023-05-01T11:57:50.706Z,20.44
2023-05-01T12:00:31.450Z,20.38
2023-05-01T12:03:04.728Z,20.50
2023-05-01T12:05:31.912Z,20.78
2023-05-01T12:08:17.407Z,21.06
2023-05-01T12:10:43.997Z,21.23
2023-05-01T12:13:12.312Z,21.25
2023-05-01T12:15:41.456Z,21.26
2023-05-01T12:18:08.096Z,20.98
2023-05-01T12:20:39.277Z,20.98
2023-05-01T12:23:07.346Z,20.99
2023-05-01T12:25:34.069Z,21.06
2023-05-01T12:28:07.740Z,21.04
2023-05-01T12:30:34.317Z,21.12
2023-05-01T12:33:01.012Z,21.30
2023-05-01T12:35:30.837Z,21.45
2023-05-01T12:37:57.651Z,21.52
2023-05-01T12:40:24.298Z,21.55
2023-05-01T12:42:56.850Z,21.32
2023-05-01T12:45:24.322Z,21.18
2023-05-01T12:47:50.969Z,20.90
2023-05-01T12:50:17.681Z,20.91
2023-05-01T12:52:44.210Z,20.98
2023-05-01T12:55:10.864Z,21.14
2023-05-01T12:57:51.444Z,21.35
2023-05-01T13:00:18.153Z,21.39
2023-05-01T13:02:44.738Z,21.17
2023-05-01T13:05:11.770Z,21.10
2023-05-01T13:07:38.486Z,21.20
2023-05-01T13:10:05.311Z,21.37
2023-05-01T13:12:32.046Z,21.35
2023-05-01T13:14:58.675Z,21.55
2023-05-01T13:17:32.015Z,21.60
2023-05-01T13:19:59.914Z,21.66
2023-05-01T13:22:32.627Z,21.81
2023-05-01T13:24:59.245Z,21.92
2023-05-01T13:27:25.791Z,21.75
2023-05-01T13:29:56.461Z,21.57
2023-05-01T13:32:23.932Z,21.28
2023-05-01T13:34:50.566Z,21.24
2023-05-01T13:37:17.176Z,21.59
2023-05-01T13:39:44.269Z,21.94
2023-05-01T13:42:21.717Z,22.01
2023-05-01T13:44:51.214Z,21.69
2023-05-01T13:47:18.428Z,21.59
2023-05-01T13:49:45.070Z,21.92
2023-05-01T13:52:12.382Z,22.50
2023-05-01T13:54:40.205Z,23.71
2023-05-01T13:57:06.806Z,24.71
2023-05-01T13:59:41.084Z,25.96
2023-05-01T14:02:17.973Z,27.24
2023-05-01T14:04:44.614Z,27.54
2023-05-01T14:07:11.933Z,28.54
2023-05-01T14:09:38.514Z,28.73
2023-05-01T14:12:05.072Z,29.83
2023-05-01T14:14:31.658Z,30.49
2023-05-01T14:16:58.195Z,31.23
2023-05-01T14:19:24.850Z,30.67
2023-05-01T14:21:51.401Z,30.94
2023-05-01T14:24:18.193Z,30.56
2023-05-01T14:26:44.914Z,31.28
2023-05-01T14:29:22.765Z,31.82
2023-05-01T14:31:49.454Z,32.32
2023-05-01T14:34:16.847Z,32.55
2023-05-01T14:36:43.477Z,32.11
2023-05-01T14:39:10.052Z,31.15
2023-05-01T14:41:36.597Z,31.33
2023-05-01T14:44:03.147Z,28.43
2023-05-01T14:46:31.303Z,25.70
2023-05-01T14:48:58.498Z,23.80
2023-05-01T14:51:25.129Z,22.96
2023-05-01T14:53:51.709Z,22.01
2023-05-01T14:56:18.240Z,21.77
2023-05-01T14:58:44.837Z,21.04
2023-05-01T15:01:11.401Z,20.51
2023-05-01T15:03:38.093Z,19.95
2023-05-01T15:06:04.940Z,19.51
2023-05-01T15:08:31.531Z,19.27
2023-05-01T15:10:58.114Z,19.14
2023-05-01T15:13:24.681Z,19.05
2023-05-01T15:15:51.295Z,18.96
2023-05-01T15:18:17.898Z,18.93
2023-05-01T15:20:45.374Z,18.91
2023-05-01T15:23:11.955Z,18.83
2023-05-01T15:25:38.459Z,18.82
2023-05-01T15:28:05.077Z,18.93
2023-05-01T15:30:31.741Z,19.45
2023-05-01T15:32:58.420Z,19.74
2023-05-01T15:35:25.080Z,19.99
2023-05-01T15:37:51.701Z,20.60
2023-05-01T15:40:18.335Z,20.38
2023-05-01T15:42:44.947Z,20.05
2023-05-01T15:45:11.639Z,19.74
2023-05-01T15:47:38.443Z,19.33
2023-05-01T15:50:08.959Z,19.04
2023-05-01T15:52:35.563Z,19.01
2023-05-01T15:55:02.101Z,19.07
2023-05-01T15:57:29.677Z,19.00
2023-05-01T15:59:56.396Z,19.00
2023-05-01T16:02:23.234Z,18.89
2023-05-01T16:04:49.826Z,18.79
2023-05-01T16:07:16.412Z,18.84
2023-05-01T16:09:42.999Z,18.82
2023-05-01T16:12:09.565Z,18.74
2023-05-01T16:14:36.119Z,19.15
2023-05-01T16:17:03.511Z,19.43
2023-05-01T16:19:30.064Z,19.75
2023-05-01T16:21:56.648Z,19.91
2023-05-01T16:24:23.200Z,19.58
2023-05-01T16:26:49.853Z,19.28
2023-05-01T16:29:16.433Z,19.00
2023-05-01T16:31:43.852Z,18.73
2023-05-01T16:34:14.133Z,18.53
2023-05-01T16:36:41.198Z,18.41
2023-05-01T16:39:10.206Z,18.31
2023-05-01T16:41:46.921Z,18.05
2023-05-01T16:44:13.805Z,17.87
2023-05-01T16:46:44.108Z,17.79
2023-05-01T16:49:11.238Z,17.76
2023-05-01T16:51:38.607Z,17.65
2023-05-01T16:54:05.210Z,17.53
2023-05-01T16:56:31.752Z,17.37
2023-05-01T16:58:58.317Z,17.25
2023-05-01T17:01:24.943Z,17.10
2023-05-01T17:03:52.459Z,16.99
2023-05-01T17:06:19.039Z,16.82
2023-05-01T17:08:45.692Z,16.77
2023-05-01T17:11:12.244Z,16.61
2023-05-01T17:13:38.762Z,16.47
2023-05-01T17:16:05.450Z,16.26
2023-05-01T17:18:32.075Z,16.11
2023-05-01T17:20:58.629Z,16.02
2023-05-01T17:23:25.201Z,15.96
2023-05-01T17:25:51.774Z,15.93
2023-05-01T17:28:18.324Z,15.95
2023-05-01T17:30:44.932Z,15.82
2023-05-01T17:33:11.497Z,15.65
2023-05-01T17:35:38.028Z,15.55
2023-05-01T17:38:04.568Z,15.52
2023-05-01T17:40:31.150Z,15.57
2023-05-01T17:42:58.022Z,15.42
2023-05-01T17:45:24.710Z,15.38
2023-05-01T17:47:51.508Z,15.29
2023-05-01T17:50:18.276Z,15.27
2023-05-01T17:52:44.815Z,15.21
2023-05-01T17:55:17.098Z,15.21
2023-05-01T17:57:46.500Z,15.20
2023-05-01T18:00:13.603Z,15.25
2023-05-01T18:02:40.596Z,15.21
2023-05-01T18:05:07.392Z,15.14
2023-05-01T18:07:34.008Z,15.08
2023-05-01T18:10:01.067Z,15.03
2023-05-01T18:12:27.859Z,15.04
2023-05-01T18:14:54.401Z,15.04
2023-05-01T18:17:21.611Z,15.05
2023-05-01T18:19:49.536Z,15.03
2023-05-01T18:22:16.165Z,15.00
2023-05-01T18:24:42.934Z,14.98
2023-05-01T18:27:09.597Z,14.90
2023-05-01T18:29:36.147Z,14.81
2023-05-01T18:32:02.745Z,14.77
2023-05-01T18:34:29.528Z,14.71
2023-05-01T18:36:56.129Z,14.52
2023-05-01T18:39:22.711Z,14.42
2023-05-01T18:41:54.487Z,14.35
2023-05-01T18:44:21.049Z,14.30
2023-05-01T18:46:47.699Z,14.15
2023-05-01T18:49:14.487Z,14.04
2023-05-01T18:51:41.122Z,13.96
2023-05-01T18:54:07.695Z,13.77
2023-05-01T18:56:34.484Z,13.69
2023-05-01T18:59:01.142Z,13.60
2023-05-01T19:01:28.022Z,13.53
2023-05-01T19:03:54.595Z,13.45
2023-05-01T19:06:21.224Z,13.36
2023-05-01T19:08:47.879Z,13.30
2023-05-01T19:11:14.458Z,13.24
2023-05-01T19:13:40.971Z,13.17
2023-05-01T19:16:07.590Z,13.09
2023-05-01T19:18:34.160Z,13.01
2023-05-01T19:21:00.688Z,12.94
2023-05-01T19:23:27.206Z,12.85
2023-05-01T19:25:53.731Z,12.80
2023-05-01T19:28:20.322Z,12.73
2023-05-01T19:30:46.854Z,12.67
2023-05-01T19:33:13.497Z,12.61
2023-05-01T19:35:40.072Z,12.57
2023-05-01T19:38:06.621Z,12.50
2023-05-01T19:40:33.199Z,12.48
2023-05-01T19:42:59.722Z,12.37
2023-05-01T19:45:26.328Z,12.31
2023-05-01T19:47:52.875Z,12.22
2023-05-01T19:50:19.440Z,12.22
2023-05-01T19:52:46.020Z,12.15
2023-05-01T19:55:12.568Z,12.05
2023-05-01T19:57:39.322Z,11.97
2023-05-01T20:00:06.837Z,11.96
